createdAt,value
2022-08-02T00:02:10.213Z,57.20
2022-08-02T00:07:12.523Z,57.66
2022-08-02T00:12:14.470Z,57.47
2022-08-02T00:17:16.451Z,57.51
2022-08-02T00:22:18.505Z,57.86
2022-08-02T00:27:20.516Z,57.84
2022-08-02T00:32:23.388Z,58.10
2022-08-02T00:37:25.272Z,58.14
2022-08-02T00:42:27.198Z,58.05
2022-08-02T00:47:29.170Z,58.27
2022-08-02T00:52:30.949Z,58.53
2022-08-02T00:57:32.757Z,58.45
2022-08-02T01:02:34.698Z,58.52
2022-08-02T01:07:36.696Z,58.86
2022-08-02T01:12:38.539Z,58.64
2022-08-02T01:17:49.416Z,58.72
2022-08-02T01:23:09.243Z,58.99
2022-08-02T01:28:35.247Z,59.22
2022-08-02T01:34:04.406Z,58.92
2022-08-02T01:39:11.885Z,59.19
2022-08-02T01:44:32.679Z,59.32
2022-08-02T01:49:37.973Z,59.40
2022-08-02T01:54:43.119Z,59.09
2022-08-02T01:59:47.037Z,59.71
2022-08-02T02:04:51.912Z,59.46
2022-08-02T02:09:55.921Z,59.74
2022-08-02T02:15:00.542Z,60.04
2022-08-02T02:20:04.570Z,59.91
2022-08-02T02:25:08.967Z,60.11
2022-08-02T02:30:14.153Z,60.30
2022-08-02T02:35:19.694Z,60.08
2022-08-02T02:40:23.657Z,60.39
2022-08-02T02:45:27.066Z,60.44
2022-08-02T02:50:30.895Z,60.42
2022-08-02T02:55:33.258Z,60.35
2022-08-02T03:00:54.136Z,60.45
2022-08-02T03:05:56.211Z,60.56
2022-08-02T03:10:58.583Z,60.83
2022-08-02T03:16:03.726Z,61.20
2022-08-02T03:21:09.505Z,60.91
2022-08-02T03:26:12.064Z,61.04
2022-08-02T03:31:13.961Z,60.83
2022-08-02T03:36:20.036Z,61.24
2022-08-02T03:41:24.152Z,61.45
2022-08-02T03:46:26.926Z,61.68
2022-08-02T03:51:29.142Z,61.74
2022-08-02T03:56:32.334Z,61.53
2022-08-02T04:01:34.430Z,61.99
2022-08-02T04:06:39.982Z,62.05
2022-08-02T04:11:43.606Z,62.18
2022-08-02T04:16:52.705Z,62.26
2022-08-02T04:21:58.002Z,62.35
2022-08-02T04:27:19.128Z,62.12
2022-08-02T04:32:24.884Z,62.10
2022-08-02T04:37:27.727Z,62.37
2022-08-02T04:42:29.673Z,62.80
2022-08-02T04:48:02.507Z,62.52
2022-08-02T04:52:53.677Z,62.51
2022-08-02T04:57:55.992Z,62.46
2022-08-02T05:02:59.186Z,62.75
2022-08-02T05:08:01.328Z,62.62
2022-08-02T05:13:05.476Z,62.85
2022-08-02T05:18:07.753Z,62.98
2022-08-02T05:23:09.571Z,63.08
2022-08-02T05:28:14.533Z,62.79
2022-08-02T05:33:16.418Z,63.01
2022-08-02T05:38:18.590Z,63.05
2022-08-02T05:43:28.002Z,62.81
2022-08-02T05:48:32.173Z,62.90
2022-08-02T05:53:50.864Z,62.96
2022-08-02T05:59:27.902Z,63.00
2022-08-02T06:04:54.609Z,63.11
2022-08-02T06:09:58.185Z,63.03
2022-08-02T06:15:00.186Z,63.04
2022-08-02T06:20:03.212Z,63.08
2022-08-02T06:25:48.558Z,62.93
2022-08-02T06:30:30.095Z,62.50
2022-08-02T06:36:01.277Z,62.68
2022-08-02T06:41:07.109Z,62.46
2022-08-02T06:46:57.186Z,61.84
2022-08-02T06:51:36.797Z,62.03
2022-08-02T06:56:44.769Z,61.88
2022-08-02T07:01:53.163Z,61.54
2022-08-02T07:06:57.118Z,61.35
2022-08-02T07:11:59.351Z,61.59
2022-08-02T07:17:03.500Z,61.28
2022-08-02T07:22:05.904Z,61.68
2022-08-02T07:27:12.279Z,61.14
2022-08-02T07:32:20.296Z,61.47
2022-08-02T07:37:54.090Z,61.28
2022-08-02T07:42:48.834Z,61.16
2022-08-02T07:47:51.853Z,61.06
2022-08-02T07:52:57.804Z,61.40
2022-08-02T07:58:00.569Z,60.92
2022-08-02T08:03:02.536Z,60.85
2022-08-02T08:08:06.139Z,60.58
2022-08-02T08:13:08.401Z,60.61
2022-08-02T08:18:10.200Z,60.81
2022-08-02T08:23:14.624Z,60.64
2022-08-02T08:28:16.699Z,59.99
2022-08-02T08:33:18.750Z,59.61
2022-08-02T08:38:21.332Z,59.46
2022-08-02T08:43:25.070Z,59.01
2022-08-02T08:48:31.122Z,58.58
2022-08-02T08:53:40.248Z,58.32
2022-08-02T08:58:47.849Z,58.47
2022-08-02T09:03:50.227Z,58.23
2022-08-02T09:08:52.794Z,57.70
2022-08-02T09:14:00.401Z,57.22
2022-08-02T09:19:24.478Z,56.67
2022-08-02T09:24:26.679Z,56.71
2022-08-02T09:29:48.569Z,56.77
2022-08-02T09:34:58.165Z,56.82
2022-08-02T09:40:00.844Z,56.77
2022-08-02T09:45:04.282Z,56.53
2022-08-02T09:50:06.551Z,55.97
2022-08-02T09:55:09.730Z,55.44
2022-08-02T10:00:14.325Z,54.65
2022-08-02T10:05:21.640Z,54.31
2022-08-02T10:10:24.702Z,53.70
2022-08-02T10:15:27.613Z,53.65
2022-08-02T10:20:36.337Z,54.28
2022-08-02T10:25:39.727Z,53.71
2022-08-02T10:30:46.263Z,53.71
2022-08-02T10:36:04.639Z,53.94
2022-08-02T10:41:11.845Z,53.67
2022-08-02T10:46:36.930Z,53.11
2022-08-02T10:51:57.422Z,51.90
2022-08-02T10:57:01.626Z,51.22
2022-08-02T11:02:07.157Z,50.98
2022-08-02T11:07:17.246Z,51.26
2022-08-02T11:12:21.178Z,51.61
2022-08-02T11:17:23.439Z,51.07
2022-08-02T11:22:26.059Z,50.41
2022-08-02T11:27:29.860Z,49.35
2022-08-02T11:32:33.070Z,49.21
2022-08-02T11:37:41.131Z,48.59
2022-08-02T11:42:48.248Z,48.95
2022-08-02T11:47:51.419Z,48.22
2022-08-02T11:52:56.462Z,48.21
2022-08-02T11:58:05.652Z,47.85
2022-08-02T12:03:08.642Z,48.05
2022-08-02T12:08:10.686Z,47.73
2022-08-02T12:13:13.733Z,47.45
2022-08-02T12:18:37.024Z,46.71
2022-08-02T12:23:59.487Z,46.19
2022-08-02T12:29:02.985Z,46.09
2022-08-02T12:34:18.203Z,45.54
2022-08-02T12:39:20.123Z,45.65
2022-08-02T12:44:22.343Z,45.83
2022-08-02T12:49:24.617Z,45.76
2022-08-02T12:54:40.292Z,44.93
2022-08-02T12:59:45.635Z,45.06
2022-08-02T13:04:50.467Z,44.51
2022-08-02T13:10:02.644Z,44.48
2022-08-02T13:15:12.276Z,44.65
2022-08-02T13:20:30.769Z,44.70
2022-08-02T13:25:33.902Z,44.61
2022-08-02T13:30:35.761Z,44.34
2022-08-02T13:35:37.727Z,44.60
2022-08-02T13:41:04.818Z,44.45
2022-08-02T13:46:08.121Z,44.21
2022-08-02T13:51:12.126Z,44.22
2022-08-02T13:56:16.941Z,43.89
2022-08-02T14:01:19.201Z,44.39
2022-08-02T14:06:24.408Z,44.04
2022-08-02T14:11:27.132Z,43.97
2022-08-02T14:16:33.117Z,43.35
2022-08-02T14:21:46.556Z,43.05
2022-08-02T14:26:50.333Z,42.76
2022-08-02T14:31:52.291Z,42.99
2022-08-02T14:36:55.387Z,42.83
2022-08-02T14:41:59.918Z,42.55
2022-08-02T14:47:13.733Z,42.58
2022-08-02T14:52:16.215Z,42.63
2022-08-02T14:57:19.285Z,42.74
2022-08-02T15:02:21.334Z,42.58
2022-08-02T15:07:23.456Z,42.50
2022-08-02T15:12:25.410Z,42.58
2022-08-02T15:17:27.436Z,42.40
2022-08-02T15:22:29.320Z,42.36
2022-08-02T15:27:33.303Z,41.98
2022-08-02T15:32:52.946Z,41.83
2022-08-02T15:37:56.242Z,41.94
2022-08-02T15:42:58.409Z,42.05
2022-08-02T15:48:00.681Z,41.60
2022-08-02T15:53:02.804Z,41.57
2022-08-02T15:58:05.858Z,41.78
2022-08-02T16:03:08.016Z,41.32
2022-08-02T16:08:13.092Z,41.68
2022-08-02T16:13:34.362Z,41.54
2022-08-02T16:18:38.600Z,41.62
2022-08-02T16:23:58.684Z,41.42
2022-08-02T16:29:03.946Z,41.62
2022-08-02T16:34:06.330Z,41.36
2022-08-02T16:39:08.273Z,41.36
2022-08-02T16:44:11.605Z,41.12
2022-08-02T16:50:07.223Z,41.44
2022-08-02T16:54:38.373Z,41.28
2022-08-02T16:59:42.673Z,41.00
2022-08-02T17:04:47.382Z,40.94
2022-08-02T17:10:02.166Z,41.06
2022-08-02T17:16:01.694Z,41.18
2022-08-02T17:20:31.499Z,41.23
2022-08-02T17:25:34.466Z,41.16
2022-08-02T17:30:39.618Z,41.15
2022-08-02T17:35:52.112Z,40.99
2022-08-02T17:40:56.212Z,41.05
2022-08-02T17:46:00.222Z,41.24
2022-08-02T17:51:04.423Z,41.07
2022-08-02T17:56:06.428Z,41.26
2022-08-02T18:01:23.480Z,41.37
2022-08-02T18:06:26.626Z,41.68
2022-08-02T18:11:52.283Z,41.86
2022-08-02T18:16:52.134Z,42.24
2022-08-02T18:21:55.317Z,42.61
2022-08-02T18:26:57.423Z,43.12
2022-08-02T18:31:59.387Z,43.28
2022-08-02T18:37:01.369Z,43.88
2022-08-02T18:42:03.551Z,43.91
2022-08-02T18:47:05.712Z,43.91
2022-08-02T18:52:08.753Z,44.30
2022-08-02T18:58:01.847Z,44.34
2022-08-02T19:02:34.787Z,44.26
2022-08-02T19:07:50.724Z,44.63
2022-08-02T19:12:54.828Z,45.07
2022-08-02T19:17:58.197Z,45.19
2022-08-02T19:23:03.342Z,45.55
2022-08-02T19:28:08.488Z,45.43
2022-08-02T19:33:10.768Z,45.94
2022-08-02T19:38:27.460Z,45.80
2022-08-02T19:44:23.386Z,46.21
2022-08-02T19:48:52.263Z,46.17
2022-08-02T19:53:55.673Z,45.92
2022-08-02T19:59:13.253Z,46.05
2022-08-02T20:04:18.775Z,45.88
2022-08-02T20:09:33.196Z,46.12
2022-08-02T20:14:35.563Z,45.76
2022-08-02T20:19:42.107Z,46.07
2022-08-02T20:24:50.775Z,45.99
2022-08-02T20:29:53.386Z,46.28
2022-08-02T20:34:55.672Z,46.09
2022-08-02T20:39:57.601Z,46.43
2022-08-02T20:44:59.474Z,46.43
2022-08-02T20:50:20.307Z,46.61
2022-08-02T20:55:33.389Z,46.86
2022-08-02T21:00:35.733Z,46.63
2022-08-02T21:05:43.907Z,46.67
2022-08-02T21:10:57.733Z,46.81
2022-08-02T21:16:00.679Z,47.22
2022-08-02T21:21:04.265Z,47.00
2022-08-02T21:26:09.096Z,46.98
2022-08-02T21:31:13.526Z,47.40
2022-08-02T21:36:15.989Z,47.61
2022-08-02T21:41:19.726Z,47.61
2022-08-02T21:46:21.935Z,47.58
2022-08-02T21:51:26.914Z,47.60
2022-08-02T21:56:30.963Z,47.96
2022-08-02T22:01:34.227Z,48.27
2022-08-02T22:06:36.491Z,47.99
2022-08-02T22:11:38.497Z,48.23
2022-08-02T22:16:40.465Z,48.43
2022-08-02T22:21:46.901Z,48.41
2022-08-02T22:26:58.137Z,48.40
2022-08-02T22:32:00.394Z,48.33
2022-08-02T22:37:07.253Z,48.69
2022-08-02T22:42:09.851Z,48.80
2022-08-02T22:47:14.998Z,48.76
2022-08-02T22:52:20.231Z,48.97
2022-08-02T22:57:30.378Z,49.25
2022-08-02T23:02:33.498Z,49.18
2022-08-02T23:07:36.345Z,49.25
2022-08-02T23:12:41.256Z,49.37
2022-08-02T23:18:01.541Z,49.15
2022-08-02T23:23:03.509Z,49.05
2022-08-02T23:28:14.075Z,49.27
2022-08-02T23:33:16.502Z,49.39
2022-08-02T23:38:18.541Z,49.66
2022-08-02T23:43:20.389Z,49.61
2022-08-02T23:48:22.395Z,49.64
2022-08-02T23:53:24.240Z,49.88
2022-08-02T23:58:29.343Z,50.02
